< < Back
Terminal Aerodrome Forecast


Current Version              Previous Versions:   1  2  3  4  5  6  7  8  9  

Terminal Aerodrome Forecast

231
FTUS42 KGSP 291315 AAA
TAFAVL
TAF AMD
KAVL 291315Z 2913/3012 18004KT P6SM VCSH SCT020 BKN035
     FM292100 13003KT P6SM BKN045 PROB30 2922/2923 4SM TSRA BKN040CB
     FM292300 00000KT P6SM BKN040=



Latest METAR

142
SAUS70 KWBC 291800 RRL
MTRAVL
METAR KAVL 291754Z 17008KT 10SM FEW027 BKN041 OVC090 24/17 A3029 RMK AO2
RAB34E43 SLP234 P0000 60000 T02390167 10244 20178 58008


USA.gov is the U.S. government's official web portal to all federal, state and local government web resources and services.